Time;durP1;ratioP1;P1;durP2;ratioP2;P2;SDS_P1;SDS_P2;PMS_P1;PMS_P2;Temp;Humidity;BMP_temperature;BMP_pressure;BME280_temperature;BME280_humidity;BME280_pressure;Samples;Min_cycle;Max_cycle;Signal;HPM_P1;HPM_P2
2022/06/01 00:00:22;;;;;;;4.07;3.00;;;;;;;;;;5055352;28;20188;-72
2022/06/01 00:02:49;;;;;;;3.63;2.87;;;;;;;;;;5065213;28;20181;-72
2022/06/01 00:05:15;;;;;;;3.30;3.00;;;;;;;;;;5066470;28;20242;-72
2022/06/01 00:07:41;;;;;;;3.40;3.07;;;;;;;;;;5067977;28;20197;-72
2022/06/01 00:10:07;;;;;;;3.80;3.17;;;;;;;;;;5070619;28;20181;-72
2022/06/01 00:12:35;;;;;;;3.80;3.20;;;;;;;;;;5068408;28;20216;-72
2022/06/01 00:15:03;;;;;;;2.83;2.43;;;;;;;;;;5069130;28;20186;-72
2022/06/01 00:17:29;;;;;;;3.10;2.80;;;;;;;;;;5053690;28;20185;-72
2022/06/01 00:19:55;;;;;;;3.47;2.90;;;;;;;;;;5069111;28;20283;-72
2022/06/01 00:22:22;;;;;;;3.13;2.70;;;;;;;;;;5063889;28;20185;-72
2022/06/01 00:24:48;;;;;;;5.20;2.43;;;;;;;;;;5070847;28;20205;-72
2022/06/01 00:27:16;;;;;;;3.10;2.80;;;;;;;;;;5065215;28;20177;-72
2022/06/01 00:29:43;;;;;;;3.10;2.80;;;;;;;;;;5060670;28;20528;-72
2022/06/01 00:32:11;;;;;;;4.13;2.97;;;;;;;;;;5066774;28;20213;-72
2022/06/01 00:34:38;;;;;;;4.50;3.17;;;;;;;;;;5069014;28;20197;-72
2022/06/01 00:37:04;;;;;;;5.07;3.50;;;;;;;;;;5066421;28;20638;-72
2022/06/01 00:39:30;;;;;;;3.67;2.90;;;;;;;;;;5072775;28;20220;-72
2022/06/01 00:42:14;;;;;;;3.23;2.70;;;;;;;;;;5065877;28;20181;-72
2022/06/01 00:44:40;;;;;;;3.90;2.67;;;;;;;;;;5066302;28;20251;-72
2022/06/01 00:47:08;;;;;;;3.97;2.70;;;;;;;;;;5064963;28;20569;-72
2022/06/01 00:49:35;;;;;;;3.20;2.90;;;;;;;;;;5062274;28;20277;-72
2022/06/01 00:52:01;;;;;;;3.10;2.80;;;;;;;;;;5064205;28;20170;-72
2022/06/01 00:54:28;;;;;;;4.30;3.20;;;;;;;;;;5051811;28;20293;-71
2022/06/01 00:56:57;;;;;;;4.47;3.00;;;;;;;;;;5066231;28;20192;-74
2022/06/01 00:59:27;;;;;;;3.43;2.50;;;;;;;;;;5065141;28;20234;-72
2022/06/01 01:01:55;;;;;;;3.47;2.90;;;;;;;;;;5065921;28;20177;-72
2022/06/01 01:04:22;;;;;;;3.13;2.43;;;;;;;;;;5066619;28;20263;-73
2022/06/01 01:06:48;;;;;;;3.30;3.00;;;;;;;;;;5059656;28;20212;-72
2022/06/01 01:09:14;;;;;;;3.47;3.17;;;;;;;;;;5062435;28;20181;-72
2022/06/01 01:11:46;;;;;;;3.30;3.00;;;;;;;;;;5057979;28;20435;-72
2022/06/01 01:14:13;;;;;;;3.53;3.07;;;;;;;;;;5060514;28;20288;-72
2022/06/01 01:16:39;;;;;;;3.43;3.10;;;;;;;;;;5062987;28;20198;-72
2022/06/01 01:19:09;;;;;;;4.50;3.10;;;;;;;;;;5061347;28;20257;-72
2022/06/01 01:21:56;;;;;;;3.63;2.83;;;;;;;;;;5059263;28;20233;-72
2022/06/01 01:24:22;;;;;;;4.87;3.30;;;;;;;;;;5061357;28;20281;-72
2022/06/01 01:26:50;;;;;;;3.10;2.80;;;;;;;;;;5063330;28;20702;-72
2022/06/01 01:29:17;;;;;;;3.70;3.10;;;;;;;;;;5065401;28;20203;-72
2022/06/01 01:31:46;;;;;;;3.57;3.23;;;;;;;;;;5038665;28;20853;-72
2022/06/01 01:34:12;;;;;;;4.23;3.43;;;;;;;;;;5056761;28;20713;-72
2022/06/01 01:36:45;;;;;;;4.27;3.37;;;;;;;;;;5063804;28;20182;-72
2022/06/01 01:39:13;;;;;;;3.77;3.33;;;;;;;;;;5064056;28;20183;-72
2022/06/01 01:41:42;;;;;;;3.87;3.10;;;;;;;;;;5056507;28;20223;-72
2022/06/01 01:44:12;;;;;;;3.93;3.23;;;;;;;;;;5062035;28;20274;-72
2022/06/01 01:46:39;;;;;;;3.67;3.03;;;;;;;;;;5060412;28;20189;-72
2022/06/01 01:49:06;;;;;;;3.50;3.10;;;;;;;;;;5067926;28;20636;-72
2022/06/01 01:51:33;;;;;;;4.17;3.70;;;;;;;;;;5062945;28;20185;-72
2022/06/01 01:53:59;;;;;;;6.93;3.50;;;;;;;;;;5061306;28;20743;-72
2022/06/01 01:56:30;;;;;;;3.13;2.83;;;;;;;;;;5067562;28;20184;-72
2022/06/01 01:59:15;;;;;;;4.37;3.60;;;;;;;;;;5067125;28;20177;-71
2022/06/01 02:02:04;;;;;;;4.03;3.63;;;;;;;;;;5065492;28;20187;-71
2022/06/01 02:07:41;;;;;;;4.17;3.77;;;;;;;;;;5055909;28;20235;-72
2022/06/01 02:12:53;;;;;;;3.90;3.40;;;;;;;;;;5055527;28;20622;-71
2022/06/01 02:15:35;;;;;;;4.20;3.27;;;;;;;;;;5056043;28;20223;-72
2022/06/01 02:18:06;;;;;;;4.77;3.40;;;;;;;;;;5040166;28;20200;-71
2022/06/01 02:20:38;;;;;;;3.50;3.20;;;;;;;;;;5067599;28;20182;-71
2022/06/01 02:23:05;;;;;;;4.67;3.00;;;;;;;;;;5061843;28;20205;-71
2022/06/01 02:25:32;;;;;;;4.77;3.33;;;;;;;;;;5057188;28;20202;-72
2022/06/01 02:27:59;;;;;;;5.03;3.10;;;;;;;;;;5058745;28;20212;-71
2022/06/01 02:30:30;;;;;;;3.67;3.10;;;;;;;;;;5063263;28;20192;-71
2022/06/01 02:32:58;;;;;;;4.67;3.27;;;;;;;;;;5066082;28;20324;-72
2022/06/01 02:35:24;;;;;;;3.50;3.20;;;;;;;;;;5064656;28;20177;-72
2022/06/01 02:37:54;;;;;;;3.83;3.13;;;;;;;;;;5057891;28;20777;-72
2022/06/01 02:40:22;;;;;;;3.77;3.37;;;;;;;;;;5061043;28;20177;-73
2022/06/01 02:42:52;;;;;;;5.73;3.57;;;;;;;;;;5066577;28;20200;-72
2022/06/01 02:45:20;;;;;;;3.53;3.23;;;;;;;;;;5061606;28;20180;-72
2022/06/01 02:47:46;;;;;;;4.90;3.07;;;;;;;;;;5067792;28;20327;-72
2022/06/01 02:50:16;;;;;;;5.70;3.60;;;;;;;;;;5064937;28;20263;-72
2022/06/01 02:52:42;;;;;;;4.57;3.47;;;;;;;;;;5065922;28;20975;-72
2022/06/01 02:55:12;;;;;;;3.43;3.13;;;;;;;;;;5060744;28;20231;-72
2022/06/01 02:57:40;;;;;;;4.10;2.90;;;;;;;;;;5063186;28;20199;-72
2022/06/01 03:00:08;;;;;;;3.10;2.80;;;;;;;;;;5041161;28;20177;-72
2022/06/01 03:02:35;;;;;;;4.00;3.60;;;;;;;;;;5060235;28;20220;-72
2022/06/01 03:05:02;;;;;;;3.97;3.57;;;;;;;;;;5054894;28;20190;-72
2022/06/01 03:07:28;;;;;;;3.77;3.20;;;;;;;;;;5056315;28;20186;-71
2022/06/01 03:09:54;;;;;;;3.50;3.20;;;;;;;;;;5054862;28;20190;-72
2022/06/01 03:12:22;;;;;;;3.63;3.13;;;;;;;;;;5059969;28;20213;-72
2022/06/01 03:14:48;;;;;;;3.70;3.10;;;;;;;;;;5057642;28;20198;-72
2022/06/01 03:17:15;;;;;;;3.10;2.80;;;;;;;;;;5054547;28;20189;-71
2022/06/01 03:19:41;;;;;;;3.43;3.00;;;;;;;;;;5065147;28;20227;-71
2022/06/01 03:22:07;;;;;;;3.53;3.03;;;;;;;;;;5061574;28;20177;-71
2022/06/01 03:24:34;;;;;;;3.40;2.90;;;;;;;;;;5059747;28;20706;-73
2022/06/01 03:27:00;;;;;;;3.20;2.90;;;;;;;;;;5059375;28;20184;-71
2022/06/01 03:29:26;;;;;;;3.10;2.80;;;;;;;;;;5061868;28;20643;-72
2022/06/01 03:31:53;;;;;;;3.40;3.10;;;;;;;;;;5056089;28;20189;-72
2022/06/01 03:34:19;;;;;;;5.67;3.70;;;;;;;;;;5045155;28;20244;-71
2022/06/01 03:36:46;;;;;;;4.63;3.80;;;;;;;;;;5062703;28;20189;-71
2022/06/01 03:39:12;;;;;;;6.03;3.67;;;;;;;;;;5060410;28;20218;-71
2022/06/01 03:41:38;;;;;;;4.17;3.77;;;;;;;;;;5066087;28;20588;-72
2022/06/01 03:46:52;;;;;;;6.60;4.37;;;;;;;;;;5059311;28;20204;-72
2022/06/01 03:49:20;;;;;;;6.20;5.03;;;;;;;;;;5039911;28;20793;-72
2022/06/01 03:51:48;;;;;;;4.70;4.13;;;;;;;;;;5063790;28;20200;-72
2022/06/01 03:54:15;;;;;;;4.50;3.87;;;;;;;;;;5064759;28;20236;-72
2022/06/01 03:56:42;;;;;;;4.50;4.10;;;;;;;;;;5059689;28;20182;-71
2022/06/01 03:59:08;;;;;;;5.57;3.70;;;;;;;;;;5058232;28;20630;-71
2022/06/01 04:01:34;;;;;;;5.23;4.20;;;;;;;;;;5060549;28;20197;-71
2022/06/01 04:04:01;;;;;;;4.60;4.20;;;;;;;;;;5063271;28;20201;-71
2022/06/01 04:06:27;;;;;;;5.40;3.87;;;;;;;;;;5056733;28;20197;-71
2022/06/01 04:08:53;;;;;;;4.30;3.90;;;;;;;;;;5059456;28;20226;-72
2022/06/01 04:11:19;;;;;;;4.27;3.70;;;;;;;;;;5053429;28;20193;-72
2022/06/01 04:13:45;;;;;;;7.00;4.23;;;;;;;;;;5057734;28;20295;-72
2022/06/01 04:16:12;;;;;;;4.80;3.67;;;;;;;;;;5065244;28;20188;-72
2022/06/01 04:18:38;;;;;;;4.40;3.47;;;;;;;;;;5053527;28;20238;-72
2022/06/01 04:21:04;;;;;;;5.60;3.77;;;;;;;;;;5059402;28;20609;-72
2022/06/01 04:23:30;;;;;;;4.37;3.70;;;;;;;;;;5061722;28;20604;-72
2022/06/01 04:25:56;;;;;;;6.07;3.83;;;;;;;;;;5057480;28;20562;-72
2022/06/01 04:28:22;;;;;;;5.30;3.40;;;;;;;;;;5054596;28;20178;-72
2022/06/01 04:30:49;;;;;;;4.47;3.70;;;;;;;;;;5068121;28;20181;-72
2022/06/01 04:33:15;;;;;;;6.77;3.60;;;;;;;;;;5056805;28;20213;-72
2022/06/01 04:35:41;;;;;;;4.77;3.37;;;;;;;;;;5063856;28;20213;-72
2022/06/01 04:38:14;;;;;;;3.50;3.20;;;;;;;;;;5061903;28;20283;-72
2022/06/01 04:40:44;;;;;;;5.70;3.40;;;;;;;;;;5065739;28;20654;-72
2022/06/01 04:43:12;;;;;;;4.83;3.90;;;;;;;;;;5062673;28;20197;-72
2022/06/01 04:45:39;;;;;;;4.20;3.80;;;;;;;;;;5067686;28;20196;-72
2022/06/01 04:48:05;;;;;;;3.97;3.50;;;;;;;;;;5068779;28;20588;-72
2022/06/01 04:50:31;;;;;;;4.20;3.80;;;;;;;;;;5064161;28;20187;-72
2022/06/01 04:52:57;;;;;;;4.13;3.70;;;;;;;;;;5064517;28;20345;-72
2022/06/01 04:55:23;;;;;;;5.00;4.50;;;;;;;;;;5060752;28;20188;-72
2022/06/01 04:57:49;;;;;;;5.67;4.67;;;;;;;;;;5064180;28;20199;-72
2022/06/01 05:00:16;;;;;;;4.90;4.40;;;;;;;;;;5057197;28;20174;-72
2022/06/01 05:02:42;;;;;;;6.43;4.80;;;;;;;;;;5056754;28;20303;-72
2022/06/01 05:05:09;;;;;;;7.47;4.73;;;;;;;;;;5060961;28;20264;-72
2022/06/01 05:07:36;;;;;;;5.47;4.30;;;;;;;;;;5062196;28;20208;-72
2022/06/01 05:10:02;;;;;;;5.90;3.83;;;;;;;;;;5052139;28;20193;-72
2022/06/01 05:12:29;;;;;;;3.67;3.37;;;;;;;;;;5062419;28;20213;-72
2022/06/01 05:14:55;;;;;;;5.60;4.20;;;;;;;;;;5062951;28;20196;-72
2022/06/01 05:17:21;;;;;;;7.17;4.10;;;;;;;;;;5060680;28;20192;-72
2022/06/01 05:19:48;;;;;;;5.63;4.00;;;;;;;;;;5064210;28;20188;-72
2022/06/01 05:22:14;;;;;;;5.10;4.57;;;;;;;;;;5054568;28;20182;-72
2022/06/01 05:24:40;;;;;;;4.90;4.33;;;;;;;;;;5068165;28;20221;-72
2022/06/01 05:27:07;;;;;;;6.43;4.53;;;;;;;;;;5060653;28;20300;-75
2022/06/01 05:29:34;;;;;;;7.17;4.53;;;;;;;;;;5048026;28;20610;-75
2022/06/01 05:32:00;;;;;;;4.57;3.50;;;;;;;;;;5056466;28;20197;-74
2022/06/01 05:34:26;;;;;;;4.90;3.60;;;;;;;;;;5060478;28;20217;-71
2022/06/01 05:36:53;;;;;;;8.60;4.20;;;;;;;;;;5064245;28;20582;-78
2022/06/01 05:39:19;;;;;;;4.67;3.60;;;;;;;;;;5067012;28;20231;-73
2022/06/01 05:41:46;;;;;;;7.70;4.00;;;;;;;;;;5067227;28;20204;-74
2022/06/01 05:44:13;;;;;;;5.93;3.83;;;;;;;;;;5051986;28;20684;-74
2022/06/01 05:46:39;;;;;;;4.73;3.90;;;;;;;;;;5058106;28;20266;-74
2022/06/01 05:49:06;;;;;;;4.27;3.87;;;;;;;;;;5067604;28;20196;-74
2022/06/01 05:51:34;;;;;;;6.37;4.47;;;;;;;;;;5060265;28;20663;-74
2022/06/01 05:54:00;;;;;;;6.60;4.60;;;;;;;;;;5059600;28;20208;-75
2022/06/01 05:56:27;;;;;;;6.17;4.40;;;;;;;;;;5065587;28;20264;-76
2022/06/01 05:58:53;;;;;;;6.63;4.70;;;;;;;;;;5053140;28;20196;-77
2022/06/01 06:01:23;;;;;;;4.80;4.27;;;;;;;;;;5066746;28;20189;-77
2022/06/01 06:03:51;;;;;;;4.93;4.13;;;;;;;;;;5069252;28;20215;-77
2022/06/01 06:06:17;;;;;;;7.73;4.53;;;;;;;;;;5069407;28;20289;-77
2022/06/01 06:09:00;;;;;;;5.77;4.13;;;;;;;;;;5060046;28;20186;-77
2022/06/01 06:11:27;;;;;;;7.47;4.67;;;;;;;;;;5064689;28;20193;-77
2022/06/01 06:13:54;;;;;;;5.83;5.00;;;;;;;;;;5066796;28;20225;-77
2022/06/01 06:16:20;;;;;;;6.03;4.67;;;;;;;;;;5062565;28;20185;-77
2022/06/01 06:18:47;;;;;;;6.50;5.50;;;;;;;;;;5069068;28;20181;-77
2022/06/01 06:21:13;;;;;;;6.17;5.37;;;;;;;;;;5067380;28;20196;-77
2022/06/01 06:23:40;;;;;;;8.23;5.30;;;;;;;;;;5066982;28;20696;-77
2022/06/01 06:26:06;;;;;;;5.97;4.60;;;;;;;;;;5067344;28;20276;-77
2022/06/01 06:28:32;;;;;;;5.27;3.93;;;;;;;;;;5069120;28;20682;-77
2022/06/01 06:30:59;;;;;;;4.27;3.57;;;;;;;;;;5069517;28;20192;-77
2022/06/01 06:33:25;;;;;;;4.03;3.33;;;;;;;;;;5065509;28;20667;-77
2022/06/01 06:35:59;;;;;;;4.60;3.00;;;;;;;;;;5061362;28;20186;-77
2022/06/01 06:38:27;;;;;;;3.30;2.67;;;;;;;;;;5059833;28;20268;-77
2022/06/01 06:40:54;;;;;;;4.80;3.37;;;;;;;;;;5060157;28;20551;-77
2022/06/01 06:43:21;;;;;;;4.37;3.10;;;;;;;;;;5054018;28;20209;-77
2022/06/01 06:45:50;;;;;;;4.53;3.53;;;;;;;;;;5065829;28;20254;-77
2022/06/01 06:48:17;;;;;;;3.33;2.93;;;;;;;;;;5062450;28;20681;-78
2022/06/01 06:50:43;;;;;;;5.00;3.33;;;;;;;;;;5067370;28;20193;-77
2022/06/01 06:53:09;;;;;;;4.03;3.30;;;;;;;;;;5050173;28;20217;-77
2022/06/01 06:55:36;;;;;;;3.20;2.90;;;;;;;;;;5054813;28;20181;-77
2022/06/01 06:58:02;;;;;;;4.03;2.90;;;;;;;;;;5049958;28;20189;-78
2022/06/01 07:00:34;;;;;;;3.00;2.80;;;;;;;;;;5060387;28;20181;-74
2022/06/01 07:03:00;;;;;;;3.10;2.80;;;;;;;;;;5055204;28;20295;-74
2022/06/01 07:08:11;;;;;;;2.90;2.70;;;;;;;;;;5055294;28;20177;-74
2022/06/01 07:10:37;;;;;;;4.53;2.80;;;;;;;;;;5063208;28;20185;-74
2022/06/01 07:13:03;;;;;;;6.57;2.93;;;;;;;;;;5055716;28;20209;-74
2022/06/01 07:15:29;;;;;;;3.03;2.73;;;;;;;;;;5062054;28;20173;-74
2022/06/01 07:17:55;;;;;;;4.67;3.20;;;;;;;;;;5063721;28;20276;-74
2022/06/01 07:20:22;;;;;;;3.13;2.70;;;;;;;;;;5070225;28;20668;-74
2022/06/01 07:22:48;;;;;;;3.73;2.60;;;;;;;;;;5062696;28;20189;-74
2022/06/01 07:25:14;;;;;;;3.33;2.90;;;;;;;;;;5066178;28;20254;-74
2022/06/01 07:27:40;;;;;;;3.73;3.00;;;;;;;;;;5062437;28;20181;-74
2022/06/01 07:30:09;;;;;;;4.30;3.00;;;;;;;;;;5064412;28;20275;-74
2022/06/01 07:32:35;;;;;;;5.17;3.00;;;;;;;;;;5062695;28;20205;-74
2022/06/01 07:35:03;;;;;;;2.90;2.60;;;;;;;;;;5062087;28;20205;-74
2022/06/01 07:43:07;;;;;;;3.10;2.60;;;;;;;;;;5069294;28;20790;-75
2022/06/01 07:45:35;;;;;;;3.30;2.97;;;;;;;;;;5065757;28;20200;-75
2022/06/01 07:48:02;;;;;;;4.47;2.83;;;;;;;;;;5067726;28;20177;-75
2022/06/01 07:50:28;;;;;;;3.67;2.73;;;;;;;;;;5066566;28;20239;-75
2022/06/01 07:52:54;;;;;;;3.20;2.33;;;;;;;;;;5059344;28;20707;-74
2022/06/01 07:55:20;;;;;;;3.17;2.47;;;;;;;;;;5040034;28;20273;-74
2022/06/01 07:57:46;;;;;;;5.30;2.50;;;;;;;;;;5066682;28;20673;-74
2022/06/01 08:00:13;;;;;;;4.00;2.20;;;;;;;;;;5063596;28;20181;-74
2022/06/01 08:02:40;;;;;;;3.07;2.30;;;;;;;;;;5061244;28;20191;-74
2022/06/01 08:05:06;;;;;;;3.10;2.33;;;;;;;;;;5050677;28;20189;-74
2022/06/01 08:07:33;;;;;;;4.03;2.43;;;;;;;;;;5055933;28;20190;-74
2022/06/01 08:10:00;;;;;;;3.23;2.00;;;;;;;;;;5059629;28;20196;-74
2022/06/01 08:15:12;;;;;;;4.13;2.17;;;;;;;;;;5064244;28;20192;-75
2022/06/01 08:17:38;;;;;;;3.30;2.17;;;;;;;;;;5062605;28;20636;-75
2022/06/01 08:20:05;;;;;;;2.33;2.13;;;;;;;;;;5047081;28;20185;-74
2022/06/01 08:22:31;;;;;;;4.07;2.30;;;;;;;;;;5070986;28;20185;-75
2022/06/01 08:24:57;;;;;;;2.27;2.00;;;;;;;;;;5071561;28;20262;-75
2022/06/01 08:27:23;;;;;;;3.00;2.40;;;;;;;;;;5073353;28;20184;-75
2022/06/01 08:29:49;;;;;;;3.10;2.10;;;;;;;;;;5065406;28;20234;-75
2022/06/01 08:32:16;;;;;;;2.80;2.50;;;;;;;;;;5052271;28;20204;-75
2022/06/01 08:34:42;;;;;;;4.23;2.40;;;;;;;;;;5055222;28;20205;-75
2022/06/01 08:37:08;;;;;;;4.43;2.40;;;;;;;;;;5069047;28;20642;-75
2022/06/01 08:39:34;;;;;;;2.50;2.30;;;;;;;;;;5073132;28;20182;-75
2022/06/01 08:42:01;;;;;;;3.10;2.23;;;;;;;;;;5048114;28;20193;-75
2022/06/01 08:44:32;;;;;;;3.10;1.73;;;;;;;;;;5050118;28;20224;-75
2022/06/01 08:47:01;;;;;;;3.77;2.13;;;;;;;;;;5068747;28;20193;-75
2022/06/01 08:49:28;;;;;;;3.97;3.67;;;;;;;;;;5070016;28;20181;-75
2022/06/01 08:51:55;;;;;;;3.27;2.50;;;;;;;;;;5072292;28;20192;-75
2022/06/01 08:54:22;;;;;;;7.00;6.30;;;;;;;;;;5071376;28;20286;-75
2022/06/01 08:56:50;;;;;;;4.33;2.23;;;;;;;;;;5071191;28;20291;-75
2022/06/01 08:59:31;;;;;;;6.40;5.63;;;;;;;;;;5062823;28;20184;-75
2022/06/01 09:02:16;;;;;;;2.50;2.30;;;;;;;;;;5066930;28;20272;-74
2022/06/01 09:04:46;;;;;;;5.03;2.60;;;;;;;;;;5063772;28;20206;-76
2022/06/01 09:07:31;;;;;;;2.47;2.27;;;;;;;;;;5070957;28;20185;-75
2022/06/01 09:10:16;;;;;;;2.83;2.53;;;;;;;;;;5069445;28;20250;-75
2022/06/01 09:12:44;;;;;;;5.37;3.43;;;;;;;;;;5064848;28;20716;-75
2022/06/01 09:15:24;;;;;;;2.90;2.57;;;;;;;;;;5063428;28;20184;-74
2022/06/01 09:17:50;;;;;;;3.27;2.40;;;;;;;;;;5063398;28;20551;-75
2022/06/01 09:23:12;;;;;;;1.90;1.70;;;;;;;;;;5068307;28;20205;-75
2022/06/01 09:25:39;;;;;;;2.00;1.60;;;;;;;;;;5066344;28;20182;-74
2022/06/01 09:28:18;;;;;;;5.40;1.67;;;;;;;;;;5064063;28;20609;-75
2022/06/01 09:30:45;;;;;;;2.03;1.33;;;;;;;;;;5065443;28;20254;-76
2022/06/01 09:33:15;;;;;;;2.17;1.50;;;;;;;;;;5053825;28;20702;-75
2022/06/01 09:35:42;;;;;;;1.77;1.50;;;;;;;;;;5063967;28;20174;-74
2022/06/01 09:38:18;;;;;;;3.13;1.60;;;;;;;;;;5055490;28;20601;-75
2022/06/01 09:40:44;;;;;;;1.63;1.50;;;;;;;;;;5064184;28;20235;-76
2022/06/01 09:43:21;;;;;;;2.20;1.37;;;;;;;;;;5071224;28;20204;-76
2022/06/01 09:45:49;;;;;;;2.60;1.57;;;;;;;;;;5072069;28;20181;-76
2022/06/01 09:48:22;;;;;;;2.47;1.50;;;;;;;;;;5071779;28;20260;-76
2022/06/01 09:50:58;;;;;;;2.73;1.50;;;;;;;;;;5071987;28;20261;-76
2022/06/01 09:53:30;;;;;;;1.97;1.50;;;;;;;;;;5067006;28;20291;-76
2022/06/01 09:55:58;;;;;;;2.23;1.53;;;;;;;;;;5055310;28;20189;-76
2022/06/01 10:06:55;;;;;;;2.67;1.60;;;;;;;;;;5066663;28;20663;-76
2022/06/01 10:09:29;;;;;;;1.97;1.50;;;;;;;;;;5084951;28;20261;-76
2022/06/01 10:11:56;;;;;;;4.60;1.80;;;;;;;;;;5086690;28;20194;-76
2022/06/01 10:14:22;;;;;;;1.80;1.50;;;;;;;;;;5070136;28;20212;-76
2022/06/01 10:17:07;;;;;;;3.10;1.70;;;;;;;;;;5071549;28;20178;-76
2022/06/01 10:19:35;;;;;;;6.47;1.80;;;;;;;;;;5071414;28;20185;-76
2022/06/01 10:22:18;;;;;;;3.40;1.67;;;;;;;;;;5068939;28;20193;-76
2022/06/01 10:24:50;;;;;;;3.40;1.70;;;;;;;;;;5062782;28;20583;-75
2022/06/01 10:27:21;;;;;;;2.77;1.40;;;;;;;;;;5080053;28;20192;-75
2022/06/01 10:29:51;;;;;;;6.13;1.80;;;;;;;;;;5072038;28;20262;-75
2022/06/01 10:32:24;;;;;;;4.20;1.63;;;;;;;;;;5071106;28;20211;-76
2022/06/01 10:34:54;;;;;;;4.10;1.60;;;;;;;;;;5059085;28;20213;-76
2022/06/01 10:37:25;;;;;;;2.33;1.50;;;;;;;;;;5066374;28;20262;-76
2022/06/01 10:40:01;;;;;;;2.03;1.53;;;;;;;;;;5066292;28;20588;-76
2022/06/01 10:45:35;;;;;;;3.30;1.60;;;;;;;;;;5056070;28;20194;-76
2022/06/01 10:48:07;;;;;;;3.40;1.40;;;;;;;;;;5068430;28;20188;-76
2022/06/01 10:50:38;;;;;;;1.50;1.40;;;;;;;;;;5065558;28;20193;-76
2022/06/01 10:53:23;;;;;;;3.00;1.50;;;;;;;;;;5066490;28;20915;-76
2022/06/01 10:55:50;;;;;;;1.90;1.40;;;;;;;;;;5053077;28;20188;-76
2022/06/01 10:58:21;;;;;;;3.60;1.70;;;;;;;;;;5064822;28;20205;-76
2022/06/01 11:01:26;;;;;;;3.23;1.40;;;;;;;;;;5061118;28;20613;-76
2022/06/01 11:04:04;;;;;;;5.60;1.60;;;;;;;;;;5041817;28;20271;-76
2022/06/01 11:06:46;;;;;;;1.80;1.60;;;;;;;;;;5055606;28;20189;-76
2022/06/01 11:09:22;;;;;;;1.97;1.70;;;;;;;;;;5045405;28;20650;-76
2022/06/01 11:12:05;;;;;;;2.93;1.53;;;;;;;;;;5061669;28;20208;-76
2022/06/01 11:14:46;;;;;;;2.70;1.50;;;;;;;;;;5061822;28;20216;-76
2022/06/01 11:17:12;;;;;;;2.77;1.70;;;;;;;;;;5044851;28;20188;-76
2022/06/01 11:19:59;;;;;;;2.43;1.70;;;;;;;;;;5067978;28;20200;-76
2022/06/01 11:22:35;;;;;;;2.37;1.50;;;;;;;;;;5051727;28;20219;-76
2022/06/01 11:25:08;;;;;;;2.03;1.67;;;;;;;;;;5057835;28;20709;-76
2022/06/01 11:27:46;;;;;;;4.27;1.70;;;;;;;;;;5056925;28;20190;-76
2022/06/01 11:30:24;;;;;;;2.90;1.43;;;;;;;;;;5060396;28;20193;-76
2022/06/01 11:32:50;;;;;;;2.27;1.50;;;;;;;;;;5056686;28;20208;-76
2022/06/01 11:35:52;;;;;;;2.93;1.30;;;;;;;;;;5059873;28;20173;-77
2022/06/01 11:38:27;;;;;;;3.17;1.70;;;;;;;;;;5028907;28;20620;-77
2022/06/01 11:40:59;;;;;;;3.97;1.50;;;;;;;;;;5054385;28;20722;-77
2022/06/01 11:43:28;;;;;;;1.50;1.40;;;;;;;;;;5061844;28;20206;-77
2022/06/01 11:46:03;;;;;;;3.37;1.50;;;;;;;;;;5055274;28;20214;-77
2022/06/01 11:48:34;;;;;;;1.87;1.30;;;;;;;;;;5066534;28;20249;-77
2022/06/01 11:51:09;;;;;;;2.93;1.37;;;;;;;;;;5067625;28;20193;-77
2022/06/01 11:53:37;;;;;;;3.20;1.27;;;;;;;;;;5048285;28;20266;-76
2022/06/01 11:56:14;;;;;;;1.60;1.50;;;;;;;;;;5068193;28;20228;-77
2022/06/01 11:58:42;;;;;;;2.80;1.50;;;;;;;;;;5058068;28;20199;-77
2022/06/01 12:01:16;;;;;;;1.80;1.33;;;;;;;;;;5065874;28;20186;-77
2022/06/01 12:03:53;;;;;;;1.77;1.40;;;;;;;;;;5065808;28;20617;-77
2022/06/01 12:06:37;;;;;;;3.53;1.70;;;;;;;;;;5055239;28;20568;-77
2022/06/01 12:09:04;;;;;;;1.77;1.30;;;;;;;;;;5072826;28;20181;-76
2022/06/01 12:11:40;;;;;;;1.33;1.23;;;;;;;;;;5055583;28;20179;-76
2022/06/01 12:14:35;;;;;;;3.20;1.50;;;;;;;;;;5070533;28;20689;-77
2022/06/01 12:17:20;;;;;;;1.40;1.30;;;;;;;;;;5054206;28;20243;-77
2022/06/01 12:19:47;;;;;;;2.63;1.40;;;;;;;;;;5067910;28;20180;-77
2022/06/01 12:30:56;;;;;;;3.53;1.30;;;;;;;;;;5057096;28;20208;-79
2022/06/01 12:33:22;;;;;;;3.03;1.30;;;;;;;;;;5067568;28;20212;-78
2022/06/01 12:35:50;;;;;;;2.40;1.20;;;;;;;;;;5076138;28;20252;-84
2022/06/01 12:38:19;;;;;;;2.10;1.27;;;;;;;;;;5058518;28;20246;-75
2022/06/01 12:41:00;;;;;;;2.70;1.30;;;;;;;;;;5072216;28;20702;-76
2022/06/01 12:43:27;;;;;;;1.73;1.23;;;;;;;;;;5063646;28;20567;-74
2022/06/01 12:45:55;;;;;;;2.27;1.50;;;;;;;;;;5069394;28;20196;-75
2022/06/01 12:48:23;;;;;;;2.53;1.30;;;;;;;;;;5072142;28;20180;-75
2022/06/01 12:50:52;;;;;;;3.93;1.33;;;;;;;;;;5073716;28;20192;-76
2022/06/01 12:53:26;;;;;;;2.20;1.30;;;;;;;;;;5055073;28;20216;-77
2022/06/01 12:56:10;;;;;;;3.10;1.30;;;;;;;;;;5060614;28;20198;-79
2022/06/01 12:58:39;;;;;;;3.33;1.40;;;;;;;;;;5070527;28;20718;-78
2022/06/01 13:01:06;;;;;;;2.97;1.47;;;;;;;;;;5057889;28;20181;-77
2022/06/01 13:03:33;;;;;;;1.57;1.20;;;;;;;;;;5054772;28;20225;-77
2022/06/01 13:06:01;;;;;;;4.23;1.40;;;;;;;;;;5056271;28;20181;-77
2022/06/01 13:08:28;;;;;;;4.43;1.27;;;;;;;;;;5074312;28;20545;-75
2022/06/01 13:10:55;;;;;;;3.50;1.60;;;;;;;;;;5070648;28;20185;-76
2022/06/01 13:13:29;;;;;;;2.13;1.30;;;;;;;;;;5063998;28;20584;-77
2022/06/01 13:15:58;;;;;;;1.77;1.30;;;;;;;;;;5063510;28;20185;-79
2022/06/01 13:18:28;;;;;;;2.33;1.20;;;;;;;;;;5075597;28;20181;-75
2022/06/01 13:20:59;;;;;;;3.30;1.60;;;;;;;;;;5063207;28;20731;-76
2022/06/01 13:23:28;;;;;;;3.23;1.30;;;;;;;;;;5081065;28;20203;-77
2022/06/01 13:25:56;;;;;;;4.10;1.40;;;;;;;;;;5062837;28;20218;-75
2022/06/01 13:28:22;;;;;;;2.63;1.20;;;;;;;;;;5064153;28;20661;-76
2022/06/01 13:30:49;;;;;;;2.80;1.40;;;;;;;;;;5063423;28;20184;-74
2022/06/01 13:33:19;;;;;;;2.00;1.27;;;;;;;;;;5066745;28;20628;-74
2022/06/01 13:35:53;;;;;;;2.20;1.33;;;;;;;;;;5062700;28;20182;-74
2022/06/01 13:38:24;;;;;;;2.90;1.30;;;;;;;;;;5048233;28;20268;-74
2022/06/01 13:41:01;;;;;;;2.90;1.20;;;;;;;;;;5064300;28;20567;-75
2022/06/01 13:43:27;;;;;;;5.67;1.50;;;;;;;;;;5069103;28;20219;-75
2022/06/01 13:45:53;;;;;;;3.43;1.50;;;;;;;;;;5048120;28;20190;-75
2022/06/01 13:48:24;;;;;;;2.73;1.30;;;;;;;;;;5057680;28;20187;-75
2022/06/01 13:50:54;;;;;;;4.37;1.30;;;;;;;;;;5057809;28;20553;-75
2022/06/01 13:53:32;;;;;;;2.83;1.20;;;;;;;;;;5061024;28;20210;-76
2022/06/01 13:56:06;;;;;;;1.73;1.30;;;;;;;;;;5046435;28;20174;-76
2022/06/01 13:58:34;;;;;;;2.10;1.40;;;;;;;;;;5065770;28;20180;-74
2022/06/01 14:01:07;;;;;;;4.00;1.40;;;;;;;;;;5057509;28;20660;-75
2022/06/01 14:03:35;;;;;;;1.60;1.30;;;;;;;;;;5062348;28;20212;-74
2022/06/01 14:06:06;;;;;;;1.93;1.30;;;;;;;;;;5056050;28;20657;-75
2022/06/01 14:08:34;;;;;;;3.27;1.20;;;;;;;;;;5059843;28;20200;-74
2022/06/01 14:11:03;;;;;;;1.40;1.27;;;;;;;;;;5060113;28;20279;-74
2022/06/01 14:13:30;;;;;;;3.00;1.50;;;;;;;;;;5061982;28;20219;-75
2022/06/01 14:15:56;;;;;;;3.23;1.40;;;;;;;;;;5054764;28;20181;-75
2022/06/01 14:18:24;;;;;;;1.57;1.10;;;;;;;;;;5059895;28;20183;-75
2022/06/01 14:20:51;;;;;;;1.73;1.20;;;;;;;;;;5060346;28;20562;-76
2022/06/01 14:23:18;;;;;;;1.97;1.20;;;;;;;;;;5060445;28;20736;-76
2022/06/01 14:28:28;;;;;;;3.93;1.37;;;;;;;;;;5069516;28;20194;-76
2022/06/01 14:30:55;;;;;;;2.00;1.33;;;;;;;;;;5069411;28;20195;-76
2022/06/01 14:33:21;;;;;;;2.47;1.20;;;;;;;;;;5063411;28;20206;-77
2022/06/01 14:35:48;;;;;;;3.73;1.30;;;;;;;;;;5065146;28;20279;-76
2022/06/01 14:38:15;;;;;;;1.30;1.20;;;;;;;;;;5064113;28;20236;-76
2022/06/01 14:40:41;;;;;;;3.60;1.27;;;;;;;;;;5058051;28;20187;-76
2022/06/01 14:43:08;;;;;;;1.67;1.27;;;;;;;;;;5064248;28;20256;-76
2022/06/01 14:45:34;;;;;;;1.87;1.30;;;;;;;;;;5056163;28;20183;-76
2022/06/01 14:48:01;;;;;;;7.60;1.20;;;;;;;;;;5058219;28;20190;-76
2022/06/01 14:50:27;;;;;;;2.47;1.23;;;;;;;;;;5034412;28;20718;-76
2022/06/01 14:52:54;;;;;;;1.20;1.10;;;;;;;;;;5065211;28;20267;-76
2022/06/01 14:55:21;;;;;;;1.87;1.33;;;;;;;;;;5071587;28;20180;-76
2022/06/01 14:57:48;;;;;;;2.13;1.20;;;;;;;;;;5064542;28;20178;-76
2022/06/01 15:00:15;;;;;;;3.70;1.40;;;;;;;;;;5065018;28;20188;-76
2022/06/01 15:02:43;;;;;;;2.60;1.30;;;;;;;;;;5065432;28;20195;-76
2022/06/01 15:05:10;;;;;;;2.77;1.03;;;;;;;;;;5057130;28;20185;-76
2022/06/01 15:07:36;;;;;;;2.00;1.27;;;;;;;;;;5055656;28;20273;-76
2022/06/01 15:10:02;;;;;;;1.77;1.30;;;;;;;;;;5067073;28;20545;-76
2022/06/01 15:12:29;;;;;;;1.90;1.30;;;;;;;;;;5060922;28;20190;-76
2022/06/01 15:14:55;;;;;;;1.63;1.20;;;;;;;;;;5064235;28;20217;-76
2022/06/01 15:17:25;;;;;;;2.67;1.20;;;;;;;;;;5062350;28;22476;-76
2022/06/01 15:19:53;;;;;;;1.87;1.20;;;;;;;;;;5067958;28;20250;-76
2022/06/01 15:22:19;;;;;;;1.90;1.20;;;;;;;;;;5057556;28;20669;-76
2022/06/01 15:24:46;;;;;;;5.83;1.20;;;;;;;;;;5060145;28;20212;-76
2022/06/01 15:27:14;;;;;;;1.20;1.10;;;;;;;;;;5063969;28;20605;-76
2022/06/01 15:40:44;;;;;;;3.97;1.27;;;;;;;;;;5059297;28;20257;-75
2022/06/01 15:43:10;;;;;;;4.37;1.30;;;;;;;;;;5059802;28;20205;-75
2022/06/01 15:45:38;;;;;;;3.27;1.40;;;;;;;;;;5063399;28;20181;-75
2022/06/01 15:48:07;;;;;;;1.57;1.10;;;;;;;;;;5067942;28;20183;-75
2022/06/01 15:50:36;;;;;;;2.17;0.90;;;;;;;;;;5066408;28;20186;-77